sensor_id;sensor_type;location;lat;lon;timestamp;P1;durP1;ratioP1;P2;durP2;ratioP2
74541;SDS011;63015;45.378;20.360;2023-11-21T00:00:59;87.88;;;44.28;;
74541;SDS011;63015;45.378;20.360;2023-11-21T00:03:01;89.63;;;44.42;;
74541;SDS011;63015;45.378;20.360;2023-11-21T00:05:02;79.03;;;39.05;;
74541;SDS011;63015;45.378;20.360;2023-11-21T00:07:04;77.30;;;41.70;;
74541;SDS011;63015;45.378;20.360;2023-11-21T00:09:06;82.57;;;41.50;;
74541;SDS011;63015;45.378;20.360;2023-11-21T00:11:08;86.15;;;44.38;;
74541;SDS011;63015;45.378;20.360;2023-11-21T00:13:09;81.45;;;41.97;;
74541;SDS011;63015;45.378;20.360;2023-11-21T00:15:11;75.38;;;39.22;;
74541;SDS011;63015;45.378;20.360;2023-11-21T00:17:11;71.03;;;38.03;;
74541;SDS011;63015;45.378;20.360;2023-11-21T00:19:12;68.00;;;36.90;;
74541;SDS011;63015;45.378;20.360;2023-11-21T00:21:12;64.57;;;34.75;;
74541;SDS011;63015;45.378;20.360;2023-11-21T00:23:13;56.60;;;32.65;;
74541;SDS011;63015;45.378;20.360;2023-11-21T00:25:14;62.13;;;33.92;;
74541;SDS011;63015;45.378;20.360;2023-11-21T00:27:15;66.13;;;35.15;;
74541;SDS011;63015;45.378;20.360;2023-11-21T00:29:16;69.43;;;37.92;;
74541;SDS011;63015;45.378;20.360;2023-11-21T00:31:17;69.63;;;38.40;;
74541;SDS011;63015;45.378;20.360;2023-11-21T00:33:19;70.65;;;38.80;;
74541;SDS011;63015;45.378;20.360;2023-11-21T00:35:20;78.30;;;41.35;;
74541;SDS011;63015;45.378;20.360;2023-11-21T00:37:21;84.68;;;43.05;;
74541;SDS011;63015;45.378;20.360;2023-11-21T00:39:22;77.20;;;38.25;;
74541;SDS011;63015;45.378;20.360;2023-11-21T00:41:23;70.63;;;38.47;;
74541;SDS011;63015;45.378;20.360;2023-11-21T00:43:23;72.75;;;38.75;;
74541;SDS011;63015;45.378;20.360;2023-11-21T00:45:24;76.57;;;37.13;;
74541;SDS011;63015;45.378;20.360;2023-11-21T00:47:25;79.28;;;40.67;;
74541;SDS011;63015;45.378;20.360;2023-11-21T00:49:25;92.35;;;44.80;;
74541;SDS011;63015;45.378;20.360;2023-11-21T00:51:26;93.18;;;44.55;;
74541;SDS011;63015;45.378;20.360;2023-11-21T00:53:27;77.18;;;42.08;;
74541;SDS011;63015;45.378;20.360;2023-11-21T00:55:27;80.57;;;43.00;;
74541;SDS011;63015;45.378;20.360;2023-11-21T00:57:30;77.82;;;42.83;;
74541;SDS011;63015;45.378;20.360;2023-11-21T00:59:30;67.07;;;37.60;;
74541;SDS011;63015;45.378;20.360;2023-11-21T01:01:31;58.30;;;33.28;;
74541;SDS011;63015;45.378;20.360;2023-11-21T01:03:32;57.55;;;30.95;;
74541;SDS011;63015;45.378;20.360;2023-11-21T01:05:32;56.80;;;32.83;;
74541;SDS011;63015;45.378;20.360;2023-11-21T01:07:33;61.15;;;34.03;;
74541;SDS011;63015;45.378;20.360;2023-11-21T01:09:33;56.95;;;31.70;;
74541;SDS011;63015;45.378;20.360;2023-11-21T01:11:34;62.15;;;34.17;;
74541;SDS011;63015;45.378;20.360;2023-11-21T01:13:37;59.97;;;33.65;;
74541;SDS011;63015;45.378;20.360;2023-11-21T01:15:38;59.78;;;32.42;;
74541;SDS011;63015;45.378;20.360;2023-11-21T01:17:39;55.95;;;31.67;;
74541;SDS011;63015;45.378;20.360;2023-11-21T01:19:39;57.80;;;32.88;;
74541;SDS011;63015;45.378;20.360;2023-11-21T01:21:40;52.95;;;30.58;;
74541;SDS011;63015;45.378;20.360;2023-11-21T01:23:40;61.08;;;34.05;;
74541;SDS011;63015;45.378;20.360;2023-11-21T01:25:41;58.65;;;33.72;;
74541;SDS011;63015;45.378;20.360;2023-11-21T01:27:43;66.78;;;35.55;;
74541;SDS011;63015;45.378;20.360;2023-11-21T01:29:44;54.65;;;30.90;;
74541;SDS011;63015;45.378;20.360;2023-11-21T01:31:45;55.78;;;30.58;;
74541;SDS011;63015;45.378;20.360;2023-11-21T01:33:45;53.95;;;28.25;;
74541;SDS011;63015;45.378;20.360;2023-11-21T01:35:46;59.38;;;32.80;;
74541;SDS011;63015;45.378;20.360;2023-11-21T01:37:47;60.10;;;32.53;;
74541;SDS011;63015;45.378;20.360;2023-11-21T01:39:48;62.17;;;33.42;;
74541;SDS011;63015;45.378;20.360;2023-11-21T01:41:49;57.15;;;28.35;;
74541;SDS011;63015;45.378;20.360;2023-11-21T01:43:52;60.42;;;30.30;;
74541;SDS011;63015;45.378;20.360;2023-11-21T01:45:54;57.75;;;26.83;;
74541;SDS011;63015;45.378;20.360;2023-11-21T01:47:57;62.55;;;31.15;;
74541;SDS011;63015;45.378;20.360;2023-11-21T01:50:01;54.83;;;28.58;;
74541;SDS011;63015;45.378;20.360;2023-11-21T01:52:04;50.63;;;26.95;;
74541;SDS011;63015;45.378;20.360;2023-11-21T01:54:06;54.15;;;27.48;;
74541;SDS011;63015;45.378;20.360;2023-11-21T01:56:07;65.30;;;31.67;;
74541;SDS011;63015;45.378;20.360;2023-11-21T01:58:10;66.10;;;32.25;;
74541;SDS011;63015;45.378;20.360;2023-11-21T02:00:12;64.95;;;31.45;;
74541;SDS011;63015;45.378;20.360;2023-11-21T02:02:16;68.00;;;31.95;;
74541;SDS011;63015;45.378;20.360;2023-11-21T02:04:17;64.00;;;29.02;;
74541;SDS011;63015;45.378;20.360;2023-11-21T02:06:18;84.22;;;37.80;;
74541;SDS011;63015;45.378;20.360;2023-11-21T02:08:20;83.60;;;36.10;;
74541;SDS011;63015;45.378;20.360;2023-11-21T02:10:20;79.80;;;35.80;;
74541;SDS011;63015;45.378;20.360;2023-11-21T02:12:22;82.28;;;35.85;;
74541;SDS011;63015;45.378;20.360;2023-11-21T02:14:27;58.85;;;29.70;;
74541;SDS011;63015;45.378;20.360;2023-11-21T02:16:28;89.53;;;38.80;;
74541;SDS011;63015;45.378;20.360;2023-11-21T02:20:31;86.03;;;36.70;;
74541;SDS011;63015;45.378;20.360;2023-11-21T02:22:34;98.03;;;43.65;;
74541;SDS011;63015;45.378;20.360;2023-11-21T02:24:40;79.68;;;36.60;;
74541;SDS011;63015;45.378;20.360;2023-11-21T02:26:42;85.78;;;40.08;;
74541;SDS011;63015;45.378;20.360;2023-11-21T02:28:43;82.30;;;37.00;;
74541;SDS011;63015;45.378;20.360;2023-11-21T02:30:43;68.53;;;34.20;;
74541;SDS011;63015;45.378;20.360;2023-11-21T02:32:44;74.90;;;36.85;;
74541;SDS011;63015;45.378;20.360;2023-11-21T02:34:45;56.42;;;28.50;;
74541;SDS011;63015;45.378;20.360;2023-11-21T02:36:45;70.00;;;35.70;;
74541;SDS011;63015;45.378;20.360;2023-11-21T02:38:47;77.82;;;35.13;;
74541;SDS011;63015;45.378;20.360;2023-11-21T02:40:48;67.53;;;32.95;;
74541;SDS011;63015;45.378;20.360;2023-11-21T02:42:49;48.28;;;25.88;;
74541;SDS011;63015;45.378;20.360;2023-11-21T02:44:53;39.05;;;23.45;;
74541;SDS011;63015;45.378;20.360;2023-11-21T02:46:54;37.78;;;21.77;;
74541;SDS011;63015;45.378;20.360;2023-11-21T02:48:55;38.72;;;22.13;;
74541;SDS011;63015;45.378;20.360;2023-11-21T02:50:55;41.85;;;23.45;;
74541;SDS011;63015;45.378;20.360;2023-11-21T02:52:56;38.90;;;21.45;;
74541;SDS011;63015;45.378;20.360;2023-11-21T02:55:00;41.78;;;22.83;;
74541;SDS011;63015;45.378;20.360;2023-11-21T02:57:02;39.38;;;22.08;;
74541;SDS011;63015;45.378;20.360;2023-11-21T02:59:04;41.17;;;21.85;;
74541;SDS011;63015;45.378;20.360;2023-11-21T03:01:05;39.42;;;21.73;;
74541;SDS011;63015;45.378;20.360;2023-11-21T03:03:08;39.17;;;22.48;;
74541;SDS011;63015;45.378;20.360;2023-11-21T03:05:08;34.70;;;21.95;;
74541;SDS011;63015;45.378;20.360;2023-11-21T03:07:09;36.50;;;21.83;;
74541;SDS011;63015;45.378;20.360;2023-11-21T03:09:10;35.35;;;20.48;;
74541;SDS011;63015;45.378;20.360;2023-11-21T03:11:14;34.42;;;19.70;;
74541;SDS011;63015;45.378;20.360;2023-11-21T03:13:15;34.60;;;20.92;;
74541;SDS011;63015;45.378;20.360;2023-11-21T03:15:16;35.13;;;19.75;;
74541;SDS011;63015;45.378;20.360;2023-11-21T03:17:17;38.33;;;21.33;;
74541;SDS011;63015;45.378;20.360;2023-11-21T03:19:18;39.92;;;22.05;;
74541;SDS011;63015;45.378;20.360;2023-11-21T03:21:18;42.75;;;23.45;;
74541;SDS011;63015;45.378;20.360;2023-11-21T03:23:19;48.58;;;25.17;;
74541;SDS011;63015;45.378;20.360;2023-11-21T03:25:20;50.65;;;26.52;;
74541;SDS011;63015;45.378;20.360;2023-11-21T03:27:20;50.63;;;25.90;;
74541;SDS011;63015;45.378;20.360;2023-11-21T03:29:21;50.85;;;24.42;;
74541;SDS011;63015;45.378;20.360;2023-11-21T03:31:22;46.15;;;21.52;;
74541;SDS011;63015;45.378;20.360;2023-11-21T03:33:23;31.75;;;16.75;;
74541;SDS011;63015;45.378;20.360;2023-11-21T03:35:25;31.27;;;17.15;;
74541;SDS011;63015;45.378;20.360;2023-11-21T03:37:26;33.67;;;19.63;;
74541;SDS011;63015;45.378;20.360;2023-11-21T03:39:29;36.00;;;19.50;;
74541;SDS011;63015;45.378;20.360;2023-11-21T03:41:30;43.33;;;21.73;;
74541;SDS011;63015;45.378;20.360;2023-11-21T03:43:31;34.35;;;18.42;;
74541;SDS011;63015;45.378;20.360;2023-11-21T03:45:31;34.22;;;18.98;;
74541;SDS011;63015;45.378;20.360;2023-11-21T03:47:32;30.02;;;15.77;;
74541;SDS011;63015;45.378;20.360;2023-11-21T03:49:33;23.88;;;13.27;;
74541;SDS011;63015;45.378;20.360;2023-11-21T03:51:33;29.33;;;17.75;;
74541;SDS011;63015;45.378;20.360;2023-11-21T03:53:35;28.52;;;16.17;;
74541;SDS011;63015;45.378;20.360;2023-11-21T03:55:36;27.83;;;16.05;;
74541;SDS011;63015;45.378;20.360;2023-11-21T03:57:37;31.40;;;15.60;;
74541;SDS011;63015;45.378;20.360;2023-11-21T03:59:41;24.30;;;15.48;;
74541;SDS011;63015;45.378;20.360;2023-11-21T04:01:42;28.95;;;15.90;;
74541;SDS011;63015;45.378;20.360;2023-11-21T04:03:43;25.23;;;14.25;;
74541;SDS011;63015;45.378;20.360;2023-11-21T04:05:44;26.75;;;14.57;;
74541;SDS011;63015;45.378;20.360;2023-11-21T04:07:46;28.50;;;15.38;;
74541;SDS011;63015;45.378;20.360;2023-11-21T04:09:46;26.38;;;16.58;;
74541;SDS011;63015;45.378;20.360;2023-11-21T04:11:47;27.58;;;13.32;;
74541;SDS011;63015;45.378;20.360;2023-11-21T04:13:48;25.02;;;14.38;;
74541;SDS011;63015;45.378;20.360;2023-11-21T04:15:48;27.75;;;16.90;;
74541;SDS011;63015;45.378;20.360;2023-11-21T04:17:49;27.52;;;16.27;;
74541;SDS011;63015;45.378;20.360;2023-11-21T04:19:49;28.40;;;16.00;;
74541;SDS011;63015;45.378;20.360;2023-11-21T04:21:50;28.02;;;16.45;;
74541;SDS011;63015;45.378;20.360;2023-11-21T04:23:50;29.20;;;15.93;;
74541;SDS011;63015;45.378;20.360;2023-11-21T04:25:51;28.42;;;16.73;;
74541;SDS011;63015;45.378;20.360;2023-11-21T04:27:54;28.33;;;15.85;;
74541;SDS011;63015;45.378;20.360;2023-11-21T04:29:55;31.80;;;17.77;;
74541;SDS011;63015;45.378;20.360;2023-11-21T04:31:55;30.58;;;16.67;;
74541;SDS011;63015;45.378;20.360;2023-11-21T04:33:56;24.55;;;14.80;;
74541;SDS011;63015;45.378;20.360;2023-11-21T04:35:56;26.17;;;14.65;;
74541;SDS011;63015;45.378;20.360;2023-11-21T04:37:57;23.35;;;13.13;;
74541;SDS011;63015;45.378;20.360;2023-11-21T04:39:57;25.08;;;14.50;;
74541;SDS011;63015;45.378;20.360;2023-11-21T04:41:58;22.35;;;13.35;;
74541;SDS011;63015;45.378;20.360;2023-11-21T04:43:58;24.70;;;11.98;;
74541;SDS011;63015;45.378;20.360;2023-11-21T04:46:00;24.23;;;14.27;;
74541;SDS011;63015;45.378;20.360;2023-11-21T04:48:02;27.33;;;14.23;;
74541;SDS011;63015;45.378;20.360;2023-11-21T04:50:04;25.23;;;14.18;;
74541;SDS011;63015;45.378;20.360;2023-11-21T04:52:06;24.77;;;13.68;;
74541;SDS011;63015;45.378;20.360;2023-11-21T04:54:07;23.95;;;13.38;;
74541;SDS011;63015;45.378;20.360;2023-11-21T04:56:08;21.98;;;12.63;;
74541;SDS011;63015;45.378;20.360;2023-11-21T04:58:08;22.98;;;12.40;;
74541;SDS011;63015;45.378;20.360;2023-11-21T05:00:09;21.20;;;12.32;;
74541;SDS011;63015;45.378;20.360;2023-11-21T05:02:10;26.75;;;14.05;;
74541;SDS011;63015;45.378;20.360;2023-11-21T05:04:12;32.45;;;15.57;;
74541;SDS011;63015;45.378;20.360;2023-11-21T05:06:14;35.75;;;17.15;;
74541;SDS011;63015;45.378;20.360;2023-11-21T05:08:15;37.75;;;17.90;;
74541;SDS011;63015;45.378;20.360;2023-11-21T05:10:15;31.60;;;17.05;;
74541;SDS011;63015;45.378;20.360;2023-11-21T05:12:16;24.73;;;12.98;;
74541;SDS011;63015;45.378;20.360;2023-11-21T05:14:17;19.77;;;10.77;;
74541;SDS011;63015;45.378;20.360;2023-11-21T05:16:19;21.45;;;12.27;;
74541;SDS011;63015;45.378;20.360;2023-11-21T05:18:20;20.17;;;12.00;;
74541;SDS011;63015;45.378;20.360;2023-11-21T05:20:20;23.48;;;12.10;;
74541;SDS011;63015;45.378;20.360;2023-11-21T05:22:21;23.98;;;12.82;;
74541;SDS011;63015;45.378;20.360;2023-11-21T05:24:22;20.65;;;11.38;;
74541;SDS011;63015;45.378;20.360;2023-11-21T05:26:22;22.25;;;12.80;;
74541;SDS011;63015;45.378;20.360;2023-11-21T05:28:23;22.65;;;11.90;;
74541;SDS011;63015;45.378;20.360;2023-11-21T05:30:24;23.83;;;12.82;;
74541;SDS011;63015;45.378;20.360;2023-11-21T05:32:24;29.25;;;16.25;;
74541;SDS011;63015;45.378;20.360;2023-11-21T05:34:25;31.45;;;15.98;;
74541;SDS011;63015;45.378;20.360;2023-11-21T05:36:26;46.63;;;20.65;;
74541;SDS011;63015;45.378;20.360;2023-11-21T05:38:27;44.95;;;22.85;;
74541;SDS011;63015;45.378;20.360;2023-11-21T05:40:27;39.05;;;19.88;;
74541;SDS011;63015;45.378;20.360;2023-11-21T05:42:30;33.13;;;17.92;;
74541;SDS011;63015;45.378;20.360;2023-11-21T05:44:31;28.73;;;16.30;;
74541;SDS011;63015;45.378;20.360;2023-11-21T05:46:31;27.38;;;15.73;;
74541;SDS011;63015;45.378;20.360;2023-11-21T05:48:34;28.25;;;15.35;;
74541;SDS011;63015;45.378;20.360;2023-11-21T05:50:37;31.20;;;15.82;;
74541;SDS011;63015;45.378;20.360;2023-11-21T05:52:38;34.55;;;18.38;;
74541;SDS011;63015;45.378;20.360;2023-11-21T05:54:42;32.28;;;17.50;;
74541;SDS011;63015;45.378;20.360;2023-11-21T05:56:42;30.98;;;15.90;;
74541;SDS011;63015;45.378;20.360;2023-11-21T05:58:43;32.10;;;16.85;;
74541;SDS011;63015;45.378;20.360;2023-11-21T06:00:44;34.88;;;17.27;;
74541;SDS011;63015;45.378;20.360;2023-11-21T06:02:44;33.28;;;18.15;;
74541;SDS011;63015;45.378;20.360;2023-11-21T06:04:45;37.75;;;17.17;;
74541;SDS011;63015;45.378;20.360;2023-11-21T06:06:46;33.10;;;17.48;;
74541;SDS011;63015;45.378;20.360;2023-11-21T06:08:46;33.78;;;18.23;;
74541;SDS011;63015;45.378;20.360;2023-11-21T06:10:47;33.65;;;16.75;;
74541;SDS011;63015;45.378;20.360;2023-11-21T06:12:49;36.30;;;17.67;;
74541;SDS011;63015;45.378;20.360;2023-11-21T06:14:50;32.78;;;16.48;;
74541;SDS011;63015;45.378;20.360;2023-11-21T06:16:51;32.33;;;15.93;;
74541;SDS011;63015;45.378;20.360;2023-11-21T06:18:52;35.45;;;18.70;;
74541;SDS011;63015;45.378;20.360;2023-11-21T06:20:53;45.13;;;20.45;;
74541;SDS011;63015;45.378;20.360;2023-11-21T06:22:53;45.45;;;18.73;;
74541;SDS011;63015;45.378;20.360;2023-11-21T06:24:54;36.58;;;18.55;;
74541;SDS011;63015;45.378;20.360;2023-11-21T06:26:55;37.83;;;18.17;;
74541;SDS011;63015;45.378;20.360;2023-11-21T06:28:56;30.23;;;16.65;;
74541;SDS011;63015;45.378;20.360;2023-11-21T06:30:57;33.03;;;16.17;;
74541;SDS011;63015;45.378;20.360;2023-11-21T06:33:05;35.00;;;16.90;;
74541;SDS011;63015;45.378;20.360;2023-11-21T06:35:07;42.28;;;19.20;;
74541;SDS011;63015;45.378;20.360;2023-11-21T06:37:08;38.95;;;17.58;;
74541;SDS011;63015;45.378;20.360;2023-11-21T06:39:09;30.75;;;14.77;;
74541;SDS011;63015;45.378;20.360;2023-11-21T06:41:09;29.33;;;15.07;;
74541;SDS011;63015;45.378;20.360;2023-11-21T06:43:10;26.73;;;13.98;;
74541;SDS011;63015;45.378;20.360;2023-11-21T06:45:10;17.52;;;9.27;;
74541;SDS011;63015;45.378;20.360;2023-11-21T06:47:11;33.17;;;15.25;;
74541;SDS011;63015;45.378;20.360;2023-11-21T06:49:11;21.02;;;11.55;;
74541;SDS011;63015;45.378;20.360;2023-11-21T06:51:12;32.53;;;15.73;;
74541;SDS011;63015;45.378;20.360;2023-11-21T06:53:13;31.17;;;13.98;;
74541;SDS011;63015;45.378;20.360;2023-11-21T06:55:14;31.17;;;15.45;;
74541;SDS011;63015;45.378;20.360;2023-11-21T06:57:15;36.33;;;18.58;;
74541;SDS011;63015;45.378;20.360;2023-11-21T06:59:16;22.15;;;11.65;;
74541;SDS011;63015;45.378;20.360;2023-11-21T07:01:16;23.45;;;13.75;;
74541;SDS011;63015;45.378;20.360;2023-11-21T07:03:17;27.80;;;12.25;;
74541;SDS011;63015;45.378;20.360;2023-11-21T07:05:20;30.65;;;14.20;;
74541;SDS011;63015;45.378;20.360;2023-11-21T07:07:21;27.00;;;13.40;;
74541;SDS011;63015;45.378;20.360;2023-11-21T07:09:22;22.70;;;12.00;;
74541;SDS011;63015;45.378;20.360;2023-11-21T07:11:22;28.50;;;13.35;;
74541;SDS011;63015;45.378;20.360;2023-11-21T07:13:23;21.17;;;12.68;;
74541;SDS011;63015;45.378;20.360;2023-11-21T07:15:23;24.08;;;12.20;;
74541;SDS011;63015;45.378;20.360;2023-11-21T07:17:26;18.25;;;9.82;;
74541;SDS011;63015;45.378;20.360;2023-11-21T07:19:26;21.13;;;10.55;;
74541;SDS011;63015;45.378;20.360;2023-11-21T07:21:27;13.30;;;7.50;;
74541;SDS011;63015;45.378;20.360;2023-11-21T07:23:27;19.38;;;9.80;;
74541;SDS011;63015;45.378;20.360;2023-11-21T07:25:28;13.13;;;6.43;;
74541;SDS011;63015;45.378;20.360;2023-11-21T07:27:29;22.85;;;12.05;;
74541;SDS011;63015;45.378;20.360;2023-11-21T07:29:30;26.35;;;11.38;;
74541;SDS011;63015;45.378;20.360;2023-11-21T07:31:30;15.75;;;7.28;;
74541;SDS011;63015;45.378;20.360;2023-11-21T07:33:34;12.63;;;6.25;;
74541;SDS011;63015;45.378;20.360;2023-11-21T07:35:34;21.73;;;10.70;;
74541;SDS011;63015;45.378;20.360;2023-11-21T07:37:35;17.70;;;9.57;;
74541;SDS011;63015;45.378;20.360;2023-11-21T07:39:38;20.83;;;10.07;;
74541;SDS011;63015;45.378;20.360;2023-11-21T07:41:42;24.65;;;10.73;;
74541;SDS011;63015;45.378;20.360;2023-11-21T07:43:48;21.88;;;8.57;;
74541;SDS011;63015;45.378;20.360;2023-11-21T07:45:48;7.53;;;4.25;;
74541;SDS011;63015;45.378;20.360;2023-11-21T07:47:49;23.70;;;9.77;;
74541;SDS011;63015;45.378;20.360;2023-11-21T07:49:50;8.23;;;4.22;;
74541;SDS011;63015;45.378;20.360;2023-11-21T07:51:51;18.50;;;8.75;;
74541;SDS011;63015;45.378;20.360;2023-11-21T07:53:52;31.23;;;13.35;;
74541;SDS011;63015;45.378;20.360;2023-11-21T07:55:52;26.13;;;10.98;;
74541;SDS011;63015;45.378;20.360;2023-11-21T07:57:53;43.10;;;16.02;;
74541;SDS011;63015;45.378;20.360;2023-11-21T07:59:54;19.08;;;9.77;;
74541;SDS011;63015;45.378;20.360;2023-11-21T08:01:55;16.42;;;7.30;;
74541;SDS011;63015;45.378;20.360;2023-11-21T08:03:55;13.98;;;7.10;;
74541;SDS011;63015;45.378;20.360;2023-11-21T08:06:04;11.93;;;6.47;;
74541;SDS011;63015;45.378;20.360;2023-11-21T08:08:05;14.95;;;8.43;;
74541;SDS011;63015;45.378;20.360;2023-11-21T08:12:07;17.98;;;8.10;;
74541;SDS011;63015;45.378;20.360;2023-11-21T08:14:10;18.88;;;8.35;;
74541;SDS011;63015;45.378;20.360;2023-11-21T08:16:13;23.20;;;10.50;;
74541;SDS011;63015;45.378;20.360;2023-11-21T08:18:15;17.88;;;8.77;;
74541;SDS011;63015;45.378;20.360;2023-11-21T08:20:17;26.08;;;11.80;;
74541;SDS011;63015;45.378;20.360;2023-11-21T08:22:18;14.20;;;7.75;;
74541;SDS011;63015;45.378;20.360;2023-11-21T08:24:18;12.93;;;7.35;;
74541;SDS011;63015;45.378;20.360;2023-11-21T08:26:19;10.27;;;5.50;;
74541;SDS011;63015;45.378;20.360;2023-11-21T08:28:21;17.35;;;6.90;;
74541;SDS011;63015;45.378;20.360;2023-11-21T08:30:26;9.10;;;4.50;;
74541;SDS011;63015;45.378;20.360;2023-11-21T08:32:29;10.30;;;5.25;;
74541;SDS011;63015;45.378;20.360;2023-11-21T08:34:33;14.10;;;6.90;;
74541;SDS011;63015;45.378;20.360;2023-11-21T08:36:34;10.43;;;4.38;;
74541;SDS011;63015;45.378;20.360;2023-11-21T08:38:35;14.18;;;7.47;;
74541;SDS011;63015;45.378;20.360;2023-11-21T08:40:38;14.07;;;6.93;;
74541;SDS011;63015;45.378;20.360;2023-11-21T08:42:39;12.80;;;6.30;;
74541;SDS011;63015;45.378;20.360;2023-11-21T08:44:40;13.55;;;7.85;;
74541;SDS011;63015;45.378;20.360;2023-11-21T08:46:41;11.02;;;5.80;;
74541;SDS011;63015;45.378;20.360;2023-11-21T08:48:43;12.57;;;6.60;;
74541;SDS011;63015;45.378;20.360;2023-11-21T08:50:44;8.15;;;3.55;;
74541;SDS011;63015;45.378;20.360;2023-11-21T08:52:45;12.88;;;6.57;;
74541;SDS011;63015;45.378;20.360;2023-11-21T08:54:46;12.07;;;5.22;;
74541;SDS011;63015;45.378;20.360;2023-11-21T08:56:48;13.77;;;5.93;;
74541;SDS011;63015;45.378;20.360;2023-11-21T08:58:50;8.52;;;4.88;;
74541;SDS011;63015;45.378;20.360;2023-11-21T09:00:50;13.45;;;6.40;;
74541;SDS011;63015;45.378;20.360;2023-11-21T09:02:51;8.18;;;3.60;;
74541;SDS011;63015;45.378;20.360;2023-11-21T09:04:52;17.45;;;8.93;;
74541;SDS011;63015;45.378;20.360;2023-11-21T09:06:52;18.10;;;9.60;;
74541;SDS011;63015;45.378;20.360;2023-11-21T09:08:53;13.60;;;7.18;;
74541;SDS011;63015;45.378;20.360;2023-11-21T09:10:54;10.98;;;5.50;;
74541;SDS011;63015;45.378;20.360;2023-11-21T09:12:54;11.05;;;5.30;;
74541;SDS011;63015;45.378;20.360;2023-11-21T09:14:55;9.23;;;4.97;;
74541;SDS011;63015;45.378;20.360;2023-11-21T09:16:56;13.30;;;4.95;;
74541;SDS011;63015;45.378;20.360;2023-11-21T09:18:58;11.27;;;5.38;;
74541;SDS011;63015;45.378;20.360;2023-11-21T09:20:59;9.85;;;4.35;;
74541;SDS011;63015;45.378;20.360;2023-11-21T09:22:59;11.45;;;5.45;;
74541;SDS011;63015;45.378;20.360;2023-11-21T09:25:00;9.07;;;5.07;;
74541;SDS011;63015;45.378;20.360;2023-11-21T09:27:01;11.63;;;6.00;;
74541;SDS011;63015;45.378;20.360;2023-11-21T09:29:01;14.73;;;5.10;;
74541;SDS011;63015;45.378;20.360;2023-11-21T09:31:02;16.90;;;6.30;;
74541;SDS011;63015;45.378;20.360;2023-11-21T09:33:05;13.45;;;5.78;;
74541;SDS011;63015;45.378;20.360;2023-11-21T09:35:06;12.77;;;6.00;;
74541;SDS011;63015;45.378;20.360;2023-11-21T09:37:10;14.15;;;5.75;;
74541;SDS011;63015;45.378;20.360;2023-11-21T09:39:11;14.65;;;6.38;;
74541;SDS011;63015;45.378;20.360;2023-11-21T09:41:17;13.13;;;6.15;;
74541;SDS011;63015;45.378;20.360;2023-11-21T09:43:30;12.27;;;6.05;;
74541;SDS011;63015;45.378;20.360;2023-11-21T09:45:32;13.20;;;6.30;;
74541;SDS011;63015;45.378;20.360;2023-11-21T09:47:35;10.45;;;5.07;;
74541;SDS011;63015;45.378;20.360;2023-11-21T09:51:43;8.88;;;4.78;;
74541;SDS011;63015;45.378;20.360;2023-11-21T09:53:44;12.43;;;5.50;;
74541;SDS011;63015;45.378;20.360;2023-11-21T09:55:48;13.73;;;5.88;;
74541;SDS011;63015;45.378;20.360;2023-11-21T09:57:51;12.25;;;5.43;;
74541;SDS011;63015;45.378;20.360;2023-11-21T09:59:54;11.05;;;5.50;;
74541;SDS011;63015;45.378;20.360;2023-11-21T10:02:05;13.52;;;5.47;;
74541;SDS011;63015;45.378;20.360;2023-11-21T10:04:13;12.63;;;5.05;;
74541;SDS011;63015;45.378;20.360;2023-11-21T10:06:14;15.52;;;6.80;;
74541;SDS011;63015;45.378;20.360;2023-11-21T10:08:18;15.05;;;5.50;;
74541;SDS011;63015;45.378;20.360;2023-11-21T10:10:20;11.75;;;5.72;;
74541;SDS011;63015;45.378;20.360;2023-11-21T10:12:22;12.98;;;5.75;;
74541;SDS011;63015;45.378;20.360;2023-11-21T10:14:24;9.43;;;6.40;;
74541;SDS011;63015;45.378;20.360;2023-11-21T10:16:26;11.45;;;4.82;;
74541;SDS011;63015;45.378;20.360;2023-11-21T10:18:27;10.55;;;5.43;;
74541;SDS011;63015;45.378;20.360;2023-11-21T10:20:28;9.55;;;4.95;;
74541;SDS011;63015;45.378;20.360;2023-11-21T10:22:29;11.65;;;4.70;;
74541;SDS011;63015;45.378;20.360;2023-11-21T10:24:30;10.20;;;4.68;;
74541;SDS011;63015;45.378;20.360;2023-11-21T10:26:30;12.63;;;4.50;;
74541;SDS011;63015;45.378;20.360;2023-11-21T10:28:36;8.95;;;4.32;;
74541;SDS011;63015;45.378;20.360;2023-11-21T10:30:39;12.00;;;5.22;;
74541;SDS011;63015;45.378;20.360;2023-11-21T10:32:40;11.10;;;5.03;;
74541;SDS011;63015;45.378;20.360;2023-11-21T10:34:41;13.43;;;5.47;;
74541;SDS011;63015;45.378;20.360;2023-11-21T10:36:43;7.47;;;3.55;;
74541;SDS011;63015;45.378;20.360;2023-11-21T10:38:45;10.98;;;5.38;;
74541;SDS011;63015;45.378;20.360;2023-11-21T10:40:50;13.23;;;5.30;;
74541;SDS011;63015;45.378;20.360;2023-11-21T10:42:52;12.65;;;5.78;;
74541;SDS011;63015;45.378;20.360;2023-11-21T10:44:54;18.05;;;5.70;;
74541;SDS011;63015;45.378;20.360;2023-11-21T10:46:55;10.35;;;4.95;;
74541;SDS011;63015;45.378;20.360;2023-11-21T10:48:56;10.25;;;4.80;;
74541;SDS011;63015;45.378;20.360;2023-11-21T10:50:57;9.57;;;4.03;;
74541;SDS011;63015;45.378;20.360;2023-11-21T10:52:57;11.68;;;5.15;;
74541;SDS011;63015;45.378;20.360;2023-11-21T10:54:58;11.65;;;4.50;;
74541;SDS011;63015;45.378;20.360;2023-11-21T10:57:03;6.80;;;2.85;;
74541;SDS011;63015;45.378;20.360;2023-11-21T10:59:04;10.20;;;4.18;;
74541;SDS011;63015;45.378;20.360;2023-11-21T11:01:06;11.93;;;4.25;;
74541;SDS011;63015;45.378;20.360;2023-11-21T11:03:08;9.68;;;4.55;;
74541;SDS011;63015;45.378;20.360;2023-11-21T11:05:15;8.05;;;3.15;;
74541;SDS011;63015;45.378;20.360;2023-11-21T11:07:19;8.93;;;4.57;;
74541;SDS011;63015;45.378;20.360;2023-11-21T11:09:25;9.50;;;4.13;;
74541;SDS011;63015;45.378;20.360;2023-11-21T11:11:26;7.55;;;3.78;;
74541;SDS011;63015;45.378;20.360;2023-11-21T11:13:28;7.75;;;4.00;;
74541;SDS011;63015;45.378;20.360;2023-11-21T11:15:29;10.98;;;3.67;;
74541;SDS011;63015;45.378;20.360;2023-11-21T11:17:30;9.73;;;4.10;;
74541;SDS011;63015;45.378;20.360;2023-11-21T11:19:33;8.25;;;3.13;;
74541;SDS011;63015;45.378;20.360;2023-11-21T11:37:42;10.02;;;5.15;;
74541;SDS011;63015;45.378;20.360;2023-11-21T11:39:44;7.82;;;3.70;;
74541;SDS011;63015;45.378;20.360;2023-11-21T11:41:45;13.30;;;5.72;;
74541;SDS011;63015;45.378;20.360;2023-11-21T11:43:47;11.93;;;6.00;;
74541;SDS011;63015;45.378;20.360;2023-11-21T11:45:47;11.93;;;6.65;;
74541;SDS011;63015;45.378;20.360;2023-11-21T11:47:56;9.27;;;4.20;;
74541;SDS011;63015;45.378;20.360;2023-11-21T11:54:39;11.60;;;6.00;;
74541;SDS011;63015;45.378;20.360;2023-11-21T11:56:40;11.88;;;5.70;;
74541;SDS011;63015;45.378;20.360;2023-11-21T11:58:41;9.18;;;3.78;;
74541;SDS011;63015;45.378;20.360;2023-11-21T12:00:42;12.38;;;5.75;;
74541;SDS011;63015;45.378;20.360;2023-11-21T12:02:49;12.55;;;6.53;;
74541;SDS011;63015;45.378;20.360;2023-11-21T12:04:55;12.82;;;5.82;;
74541;SDS011;63015;45.378;20.360;2023-11-21T12:06:57;11.52;;;5.93;;
74541;SDS011;63015;45.378;20.360;2023-11-21T12:09:03;13.32;;;6.70;;
74541;SDS011;63015;45.378;20.360;2023-11-21T12:11:06;11.85;;;6.53;;